sensor_id;sensor_type;location;lat;lon;timestamp;P1;durP1;ratioP1;P2;durP2;ratioP2
40150;SDS011;25866;52.420;10.640;2023-05-29T00:00:28;9.05;;;3.00;;
40150;SDS011;25866;52.420;10.640;2023-05-29T00:02:54;9.52;;;3.10;;
40150;SDS011;25866;52.420;10.640;2023-05-29T00:05:20;5.30;;;2.30;;
40150;SDS011;25866;52.420;10.640;2023-05-29T00:07:46;5.25;;;2.58;;
40150;SDS011;25866;52.420;10.640;2023-05-29T00:10:12;5.60;;;3.00;;
40150;SDS011;25866;52.420;10.640;2023-05-29T00:12:38;7.47;;;3.10;;
40150;SDS011;25866;52.420;10.640;2023-05-29T00:15:04;7.38;;;3.38;;
40150;SDS011;25866;52.420;10.640;2023-05-29T00:17:31;7.78;;;3.20;;
40150;SDS011;25866;52.420;10.640;2023-05-29T00:19:57;4.78;;;2.50;;
40150;SDS011;25866;52.420;10.640;2023-05-29T00:22:24;7.53;;;2.85;;
40150;SDS011;25866;52.420;10.640;2023-05-29T00:24:51;5.32;;;2.85;;
40150;SDS011;25866;52.420;10.640;2023-05-29T00:27:17;4.28;;;2.65;;
40150;SDS011;25866;52.420;10.640;2023-05-29T00:29:43;6.65;;;3.20;;
40150;SDS011;25866;52.420;10.640;2023-05-29T00:35:02;7.10;;;2.83;;
40150;SDS011;25866;52.420;10.640;2023-05-29T00:37:28;4.90;;;3.08;;
40150;SDS011;25866;52.420;10.640;2023-05-29T00:39:54;4.13;;;2.45;;
40150;SDS011;25866;52.420;10.640;2023-05-29T00:42:25;8.18;;;3.17;;
40150;SDS011;25866;52.420;10.640;2023-05-29T00:44:51;6.68;;;2.70;;
40150;SDS011;25866;52.420;10.640;2023-05-29T00:47:18;5.07;;;2.92;;
40150;SDS011;25866;52.420;10.640;2023-05-29T00:49:44;4.55;;;2.70;;
40150;SDS011;25866;52.420;10.640;2023-05-29T00:52:10;4.68;;;2.88;;
40150;SDS011;25866;52.420;10.640;2023-05-29T00:54:36;4.97;;;2.65;;
40150;SDS011;25866;52.420;10.640;2023-05-29T00:57:02;5.07;;;3.00;;
40150;SDS011;25866;52.420;10.640;2023-05-29T00:59:30;5.65;;;2.90;;
40150;SDS011;25866;52.420;10.640;2023-05-29T01:02:05;4.07;;;2.70;;
40150;SDS011;25866;52.420;10.640;2023-05-29T01:04:31;5.57;;;2.92;;
40150;SDS011;25866;52.420;10.640;2023-05-29T01:07:01;3.78;;;2.58;;
40150;SDS011;25866;52.420;10.640;2023-05-29T01:09:30;4.88;;;2.92;;
40150;SDS011;25866;52.420;10.640;2023-05-29T01:18:20;3.80;;;2.60;;
40150;SDS011;25866;52.420;10.640;2023-05-29T01:20:50;4.95;;;2.63;;
40150;SDS011;25866;52.420;10.640;2023-05-29T01:26:38;5.97;;;2.88;;
40150;SDS011;25866;52.420;10.640;2023-05-29T01:29:10;5.15;;;2.63;;
40150;SDS011;25866;52.420;10.640;2023-05-29T01:31:40;6.97;;;2.50;;
40150;SDS011;25866;52.420;10.640;2023-05-29T01:34:08;4.95;;;2.50;;
40150;SDS011;25866;52.420;10.640;2023-05-29T01:36:34;5.63;;;2.33;;
40150;SDS011;25866;52.420;10.640;2023-05-29T01:39:01;4.90;;;2.70;;
40150;SDS011;25866;52.420;10.640;2023-05-29T01:41:27;3.85;;;2.42;;
40150;SDS011;25866;52.420;10.640;2023-05-29T01:44:02;3.60;;;2.70;;
40150;SDS011;25866;52.420;10.640;2023-05-29T01:46:33;2.80;;;2.50;;
40150;SDS011;25866;52.420;10.640;2023-05-29T01:49:01;4.05;;;2.42;;
40150;SDS011;25866;52.420;10.640;2023-05-29T01:53:57;4.18;;;2.72;;
40150;SDS011;25866;52.420;10.640;2023-05-29T01:56:25;5.95;;;2.65;;
40150;SDS011;25866;52.420;10.640;2023-05-29T01:58:55;4.60;;;2.63;;
40150;SDS011;25866;52.420;10.640;2023-05-29T02:01:22;3.97;;;2.58;;
40150;SDS011;25866;52.420;10.640;2023-05-29T02:03:48;6.88;;;3.00;;
40150;SDS011;25866;52.420;10.640;2023-05-29T02:06:15;3.53;;;2.55;;
40150;SDS011;25866;52.420;10.640;2023-05-29T02:08:40;5.63;;;2.58;;
40150;SDS011;25866;52.420;10.640;2023-05-29T02:11:06;5.00;;;2.80;;
40150;SDS011;25866;52.420;10.640;2023-05-29T02:13:32;4.50;;;2.55;;
40150;SDS011;25866;52.420;10.640;2023-05-29T02:15:57;4.28;;;2.85;;
40150;SDS011;25866;52.420;10.640;2023-05-29T02:18:23;3.92;;;2.38;;
40150;SDS011;25866;52.420;10.640;2023-05-29T02:20:49;4.60;;;2.80;;
40150;SDS011;25866;52.420;10.640;2023-05-29T02:23:15;4.68;;;2.70;;
40150;SDS011;25866;52.420;10.640;2023-05-29T02:25:41;4.13;;;2.85;;
40150;SDS011;25866;52.420;10.640;2023-05-29T02:28:07;4.95;;;2.58;;
40150;SDS011;25866;52.420;10.640;2023-05-29T02:30:32;3.85;;;2.67;;
40150;SDS011;25866;52.420;10.640;2023-05-29T02:32:59;4.50;;;2.80;;
40150;SDS011;25866;52.420;10.640;2023-05-29T02:35:25;4.60;;;2.60;;
40150;SDS011;25866;52.420;10.640;2023-05-29T02:37:51;6.38;;;2.33;;
40150;SDS011;25866;52.420;10.640;2023-05-29T02:40:18;7.75;;;2.90;;
40150;SDS011;25866;52.420;10.640;2023-05-29T02:42:44;3.70;;;2.85;;
40150;SDS011;25866;52.420;10.640;2023-05-29T02:45:10;5.88;;;2.97;;
40150;SDS011;25866;52.420;10.640;2023-05-29T02:47:36;5.85;;;2.80;;
40150;SDS011;25866;52.420;10.640;2023-05-29T02:50:02;3.90;;;2.60;;
40150;SDS011;25866;52.420;10.640;2023-05-29T02:52:29;5.22;;;3.10;;
40150;SDS011;25866;52.420;10.640;2023-05-29T02:54:56;5.25;;;2.80;;
40150;SDS011;25866;52.420;10.640;2023-05-29T02:57:23;5.43;;;2.67;;
40150;SDS011;25866;52.420;10.640;2023-05-29T02:59:50;4.35;;;2.70;;
40150;SDS011;25866;52.420;10.640;2023-05-29T03:02:16;4.45;;;2.50;;
40150;SDS011;25866;52.420;10.640;2023-05-29T03:04:43;6.28;;;2.80;;
40150;SDS011;25866;52.420;10.640;2023-05-29T03:07:10;4.20;;;2.63;;
40150;SDS011;25866;52.420;10.640;2023-05-29T03:09:35;7.25;;;2.80;;
40150;SDS011;25866;52.420;10.640;2023-05-29T03:12:02;7.90;;;3.25;;
40150;SDS011;25866;52.420;10.640;2023-05-29T03:14:28;4.43;;;2.63;;
40150;SDS011;25866;52.420;10.640;2023-05-29T03:16:54;4.10;;;2.50;;
40150;SDS011;25866;52.420;10.640;2023-05-29T03:19:20;5.20;;;2.88;;
40150;SDS011;25866;52.420;10.640;2023-05-29T03:21:46;4.78;;;2.80;;
40150;SDS011;25866;52.420;10.640;2023-05-29T03:24:11;4.55;;;2.75;;
40150;SDS011;25866;52.420;10.640;2023-05-29T03:26:41;3.97;;;2.38;;
40150;SDS011;25866;52.420;10.640;2023-05-29T03:29:07;5.65;;;2.80;;
40150;SDS011;25866;52.420;10.640;2023-05-29T03:31:32;6.50;;;3.05;;
40150;SDS011;25866;52.420;10.640;2023-05-29T03:33:59;4.13;;;2.78;;
40150;SDS011;25866;52.420;10.640;2023-05-29T03:36:24;5.80;;;3.17;;
40150;SDS011;25866;52.420;10.640;2023-05-29T03:38:51;6.63;;;3.00;;
40150;SDS011;25866;52.420;10.640;2023-05-29T03:41:17;4.13;;;2.40;;
40150;SDS011;25866;52.420;10.640;2023-05-29T03:43:43;3.10;;;2.60;;
40150;SDS011;25866;52.420;10.640;2023-05-29T03:46:08;5.22;;;2.63;;
40150;SDS011;25866;52.420;10.640;2023-05-29T03:48:34;4.97;;;2.72;;
40150;SDS011;25866;52.420;10.640;2023-05-29T03:51:00;3.88;;;2.75;;
40150;SDS011;25866;52.420;10.640;2023-05-29T03:53:26;4.85;;;2.85;;
40150;SDS011;25866;52.420;10.640;2023-05-29T03:55:51;4.53;;;2.60;;
40150;SDS011;25866;52.420;10.640;2023-05-29T03:58:17;4.25;;;2.45;;
40150;SDS011;25866;52.420;10.640;2023-05-29T04:00:43;3.22;;;2.60;;
40150;SDS011;25866;52.420;10.640;2023-05-29T04:03:09;4.90;;;2.65;;
40150;SDS011;25866;52.420;10.640;2023-05-29T04:05:34;6.97;;;2.90;;
40150;SDS011;25866;52.420;10.640;2023-05-29T04:08:00;6.13;;;2.72;;
40150;SDS011;25866;52.420;10.640;2023-05-29T04:10:29;6.30;;;2.78;;
40150;SDS011;25866;52.420;10.640;2023-05-29T04:12:58;4.68;;;2.85;;
40150;SDS011;25866;52.420;10.640;2023-05-29T04:15:25;6.53;;;3.13;;
40150;SDS011;25866;52.420;10.640;2023-05-29T04:17:52;9.05;;;2.72;;
40150;SDS011;25866;52.420;10.640;2023-05-29T04:20:17;6.70;;;2.38;;
40150;SDS011;25866;52.420;10.640;2023-05-29T04:22:43;8.82;;;2.75;;
40150;SDS011;25866;52.420;10.640;2023-05-29T04:25:09;5.45;;;2.60;;
40150;SDS011;25866;52.420;10.640;2023-05-29T04:27:35;4.03;;;2.40;;
40150;SDS011;25866;52.420;10.640;2023-05-29T04:30:03;5.80;;;2.47;;
40150;SDS011;25866;52.420;10.640;2023-05-29T04:32:30;5.07;;;2.60;;
40150;SDS011;25866;52.420;10.640;2023-05-29T04:34:56;4.80;;;2.30;;
40150;SDS011;25866;52.420;10.640;2023-05-29T04:37:21;4.85;;;2.67;;
40150;SDS011;25866;52.420;10.640;2023-05-29T04:39:54;5.93;;;2.70;;
40150;SDS011;25866;52.420;10.640;2023-05-29T04:42:21;5.40;;;2.65;;
40150;SDS011;25866;52.420;10.640;2023-05-29T04:44:47;5.82;;;2.63;;
40150;SDS011;25866;52.420;10.640;2023-05-29T04:47:14;7.05;;;2.67;;
40150;SDS011;25866;52.420;10.640;2023-05-29T04:49:41;5.95;;;2.42;;
40150;SDS011;25866;52.420;10.640;2023-05-29T04:52:07;4.35;;;2.30;;
40150;SDS011;25866;52.420;10.640;2023-05-29T04:54:32;4.97;;;2.80;;
40150;SDS011;25866;52.420;10.640;2023-05-29T04:56:59;9.93;;;2.72;;
40150;SDS011;25866;52.420;10.640;2023-05-29T04:59:25;8.52;;;2.80;;
40150;SDS011;25866;52.420;10.640;2023-05-29T05:01:51;6.00;;;2.50;;
40150;SDS011;25866;52.420;10.640;2023-05-29T05:04:17;5.50;;;2.40;;
40150;SDS011;25866;52.420;10.640;2023-05-29T05:06:42;7.43;;;2.30;;
40150;SDS011;25866;52.420;10.640;2023-05-29T05:09:09;7.28;;;2.67;;
40150;SDS011;25866;52.420;10.640;2023-05-29T05:11:36;9.55;;;2.78;;
40150;SDS011;25866;52.420;10.640;2023-05-29T05:14:01;5.95;;;2.53;;
40150;SDS011;25866;52.420;10.640;2023-05-29T05:16:27;7.53;;;2.50;;
40150;SDS011;25866;52.420;10.640;2023-05-29T05:18:53;8.98;;;2.40;;
40150;SDS011;25866;52.420;10.640;2023-05-29T05:21:18;11.55;;;2.97;;
40150;SDS011;25866;52.420;10.640;2023-05-29T05:23:45;6.03;;;2.10;;
40150;SDS011;25866;52.420;10.640;2023-05-29T05:26:11;12.60;;;2.97;;
40150;SDS011;25866;52.420;10.640;2023-05-29T05:28:36;4.68;;;2.25;;
40150;SDS011;25866;52.420;10.640;2023-05-29T05:31:02;7.90;;;2.42;;
40150;SDS011;25866;52.420;10.640;2023-05-29T05:33:28;13.68;;;3.03;;
40150;SDS011;25866;52.420;10.640;2023-05-29T05:35:54;9.52;;;2.55;;
40150;SDS011;25866;52.420;10.640;2023-05-29T05:38:19;8.63;;;2.70;;
40150;SDS011;25866;52.420;10.640;2023-05-29T05:40:46;9.70;;;2.60;;
40150;SDS011;25866;52.420;10.640;2023-05-29T05:43:11;9.60;;;2.60;;
40150;SDS011;25866;52.420;10.640;2023-05-29T05:45:37;7.32;;;2.13;;
40150;SDS011;25866;52.420;10.640;2023-05-29T05:48:07;9.05;;;2.55;;
40150;SDS011;25866;52.420;10.640;2023-05-29T05:50:33;10.98;;;2.80;;
40150;SDS011;25866;52.420;10.640;2023-05-29T05:53:00;7.78;;;2.35;;
40150;SDS011;25866;52.420;10.640;2023-05-29T05:55:26;10.80;;;2.60;;
40150;SDS011;25866;52.420;10.640;2023-05-29T05:57:53;8.90;;;2.67;;
40150;SDS011;25866;52.420;10.640;2023-05-29T06:00:19;9.57;;;2.42;;
40150;SDS011;25866;52.420;10.640;2023-05-29T06:02:45;13.30;;;2.78;;
40150;SDS011;25866;52.420;10.640;2023-05-29T06:05:11;10.25;;;2.67;;
40150;SDS011;25866;52.420;10.640;2023-05-29T06:07:37;11.15;;;2.47;;
40150;SDS011;25866;52.420;10.640;2023-05-29T06:10:03;6.95;;;2.38;;
40150;SDS011;25866;52.420;10.640;2023-05-29T06:12:29;10.35;;;2.60;;
40150;SDS011;25866;52.420;10.640;2023-05-29T06:14:55;10.48;;;2.33;;
40150;SDS011;25866;52.420;10.640;2023-05-29T06:17:21;11.15;;;3.10;;
40150;SDS011;25866;52.420;10.640;2023-05-29T06:19:48;10.38;;;2.53;;
40150;SDS011;25866;52.420;10.640;2023-05-29T06:22:14;8.45;;;2.40;;
40150;SDS011;25866;52.420;10.640;2023-05-29T06:24:40;8.35;;;2.33;;
40150;SDS011;25866;52.420;10.640;2023-05-29T06:27:06;12.15;;;2.60;;
40150;SDS011;25866;52.420;10.640;2023-05-29T06:29:32;10.55;;;2.75;;
40150;SDS011;25866;52.420;10.640;2023-05-29T06:31:59;9.25;;;2.88;;
40150;SDS011;25866;52.420;10.640;2023-05-29T06:34:25;12.38;;;2.45;;
40150;SDS011;25866;52.420;10.640;2023-05-29T06:36:51;9.48;;;2.17;;
40150;SDS011;25866;52.420;10.640;2023-05-29T06:39:17;8.57;;;2.72;;
40150;SDS011;25866;52.420;10.640;2023-05-29T06:41:43;10.50;;;2.83;;
40150;SDS011;25866;52.420;10.640;2023-05-29T06:44:09;10.48;;;2.45;;
40150;SDS011;25866;52.420;10.640;2023-05-29T06:46:34;12.40;;;2.50;;
40150;SDS011;25866;52.420;10.640;2023-05-29T06:49:00;10.63;;;2.08;;
40150;SDS011;25866;52.420;10.640;2023-05-29T06:51:26;10.05;;;2.70;;
40150;SDS011;25866;52.420;10.640;2023-05-29T06:56:21;10.80;;;2.55;;
40150;SDS011;25866;52.420;10.640;2023-05-29T06:58:47;11.10;;;2.65;;
40150;SDS011;25866;52.420;10.640;2023-05-29T07:01:14;9.48;;;2.33;;
40150;SDS011;25866;52.420;10.640;2023-05-29T07:03:42;11.48;;;2.10;;
40150;SDS011;25866;52.420;10.640;2023-05-29T07:06:08;8.98;;;2.55;;
40150;SDS011;25866;52.420;10.640;2023-05-29T07:08:33;8.85;;;2.33;;
40150;SDS011;25866;52.420;10.640;2023-05-29T07:11:01;11.55;;;2.55;;
40150;SDS011;25866;52.420;10.640;2023-05-29T07:13:27;11.50;;;3.17;;
40150;SDS011;25866;52.420;10.640;2023-05-29T07:15:53;8.65;;;2.50;;
40150;SDS011;25866;52.420;10.640;2023-05-29T07:18:24;10.95;;;2.38;;
40150;SDS011;25866;52.420;10.640;2023-05-29T07:20:59;10.80;;;2.45;;
40150;SDS011;25866;52.420;10.640;2023-05-29T07:23:35;7.32;;;2.30;;
40150;SDS011;25866;52.420;10.640;2023-05-29T07:26:00;9.38;;;2.40;;
40150;SDS011;25866;52.420;10.640;2023-05-29T07:28:26;8.23;;;2.40;;
40150;SDS011;25866;52.420;10.640;2023-05-29T07:30:53;11.77;;;2.63;;
40150;SDS011;25866;52.420;10.640;2023-05-29T07:33:21;12.60;;;2.67;;
40150;SDS011;25866;52.420;10.640;2023-05-29T07:35:47;10.02;;;2.58;;
40150;SDS011;25866;52.420;10.640;2023-05-29T07:38:13;12.75;;;2.65;;
40150;SDS011;25866;52.420;10.640;2023-05-29T07:40:40;7.13;;;2.45;;
40150;SDS011;25866;52.420;10.640;2023-05-29T07:43:06;10.05;;;2.33;;
40150;SDS011;25866;52.420;10.640;2023-05-29T07:45:31;11.18;;;2.70;;
40150;SDS011;25866;52.420;10.640;2023-05-29T07:47:57;10.50;;;2.55;;
40150;SDS011;25866;52.420;10.640;2023-05-29T07:50:23;9.32;;;2.50;;
40150;SDS011;25866;52.420;10.640;2023-05-29T07:53:03;9.25;;;2.10;;
40150;SDS011;25866;52.420;10.640;2023-05-29T07:55:33;9.27;;;2.42;;
40150;SDS011;25866;52.420;10.640;2023-05-29T07:58:02;13.98;;;2.83;;
40150;SDS011;25866;52.420;10.640;2023-05-29T08:00:28;9.32;;;2.47;;
40150;SDS011;25866;52.420;10.640;2023-05-29T08:02:53;11.43;;;2.50;;
40150;SDS011;25866;52.420;10.640;2023-05-29T08:05:20;6.85;;;1.98;;
40150;SDS011;25866;52.420;10.640;2023-05-29T08:07:47;10.05;;;2.90;;
40150;SDS011;25866;52.420;10.640;2023-05-29T08:10:13;11.55;;;2.40;;
40150;SDS011;25866;52.420;10.640;2023-05-29T08:12:39;11.00;;;2.70;;
40150;SDS011;25866;52.420;10.640;2023-05-29T08:15:05;9.45;;;2.67;;
40150;SDS011;25866;52.420;10.640;2023-05-29T08:17:32;11.98;;;2.47;;
40150;SDS011;25866;52.420;10.640;2023-05-29T08:19:58;8.60;;;2.50;;
40150;SDS011;25866;52.420;10.640;2023-05-29T08:22:29;12.05;;;2.80;;
40150;SDS011;25866;52.420;10.640;2023-05-29T08:24:55;11.88;;;2.80;;
40150;SDS011;25866;52.420;10.640;2023-05-29T08:27:20;8.48;;;2.63;;
40150;SDS011;25866;52.420;10.640;2023-05-29T08:29:46;8.65;;;2.78;;
40150;SDS011;25866;52.420;10.640;2023-05-29T08:32:20;7.88;;;2.67;;
40150;SDS011;25866;52.420;10.640;2023-05-29T08:34:46;10.45;;;2.50;;
40150;SDS011;25866;52.420;10.640;2023-05-29T08:37:12;6.57;;;2.10;;
40150;SDS011;25866;52.420;10.640;2023-05-29T08:39:41;8.25;;;2.22;;
40150;SDS011;25866;52.420;10.640;2023-05-29T08:44:43;8.63;;;2.58;;
40150;SDS011;25866;52.420;10.640;2023-05-29T08:47:12;7.97;;;2.40;;
40150;SDS011;25866;52.420;10.640;2023-05-29T08:49:45;8.32;;;2.63;;
40150;SDS011;25866;52.420;10.640;2023-05-29T08:55:44;6.88;;;1.95;;
40150;SDS011;25866;52.420;10.640;2023-05-29T08:58:36;7.57;;;2.22;;
40150;SDS011;25866;52.420;10.640;2023-05-29T09:01:03;8.43;;;2.05;;
40150;SDS011;25866;52.420;10.640;2023-05-29T09:03:30;5.72;;;2.30;;
40150;SDS011;25866;52.420;10.640;2023-05-29T09:05:59;7.20;;;2.50;;
40150;SDS011;25866;52.420;10.640;2023-05-29T09:08:25;7.63;;;2.00;;
40150;SDS011;25866;52.420;10.640;2023-05-29T09:10:53;6.50;;;2.50;;
40150;SDS011;25866;52.420;10.640;2023-05-29T09:13:20;5.68;;;2.13;;
40150;SDS011;25866;52.420;10.640;2023-05-29T09:15:59;4.97;;;1.80;;
40150;SDS011;25866;52.420;10.640;2023-05-29T09:18:31;6.50;;;2.00;;
40150;SDS011;25866;52.420;10.640;2023-05-29T09:20:58;6.07;;;2.00;;
40150;SDS011;25866;52.420;10.640;2023-05-29T09:23:31;5.13;;;2.15;;
40150;SDS011;25866;52.420;10.640;2023-05-29T09:26:01;6.32;;;2.10;;
40150;SDS011;25866;52.420;10.640;2023-05-29T09:28:29;7.40;;;2.20;;
40150;SDS011;25866;52.420;10.640;2023-05-29T09:30:56;9.60;;;2.30;;
40150;SDS011;25866;52.420;10.640;2023-05-29T09:36:25;7.18;;;1.92;;
40150;SDS011;25866;52.420;10.640;2023-05-29T09:38:51;7.10;;;2.20;;
40150;SDS011;25866;52.420;10.640;2023-05-29T09:41:20;6.35;;;2.15;;
40150;SDS011;25866;52.420;10.640;2023-05-29T09:43:48;7.55;;;2.20;;
40150;SDS011;25866;52.420;10.640;2023-05-29T09:46:19;8.40;;;2.03;;
40150;SDS011;25866;52.420;10.640;2023-05-29T09:48:45;8.32;;;1.92;;
40150;SDS011;25866;52.420;10.640;2023-05-29T09:51:22;7.25;;;2.10;;
40150;SDS011;25866;52.420;10.640;2023-05-29T09:53:50;7.20;;;1.83;;
40150;SDS011;25866;52.420;10.640;2023-05-29T09:56:16;7.63;;;1.60;;
40150;SDS011;25866;52.420;10.640;2023-05-29T09:58:42;5.60;;;1.77;;
40150;SDS011;25866;52.420;10.640;2023-05-29T10:01:17;3.88;;;1.83;;
40150;SDS011;25866;52.420;10.640;2023-05-29T10:06:21;6.43;;;1.98;;
40150;SDS011;25866;52.420;10.640;2023-05-29T10:08:47;6.28;;;2.10;;
40150;SDS011;25866;52.420;10.640;2023-05-29T10:11:14;6.20;;;2.20;;
40150;SDS011;25866;52.420;10.640;2023-05-29T10:16:25;6.65;;;2.10;;
40150;SDS011;25866;52.420;10.640;2023-05-29T10:19:00;5.88;;;2.00;;
40150;SDS011;25866;52.420;10.640;2023-05-29T10:21:32;7.60;;;2.25;;
40150;SDS011;25866;52.420;10.640;2023-05-29T10:24:03;8.18;;;2.25;;
40150;SDS011;25866;52.420;10.640;2023-05-29T10:26:39;5.93;;;1.83;;
40150;SDS011;25866;52.420;10.640;2023-05-29T10:37:46;6.88;;;1.98;;
40150;SDS011;25866;52.420;10.640;2023-05-29T10:40:26;11.65;;;2.17;;
40150;SDS011;25866;52.420;10.640;2023-05-29T10:42:52;6.45;;;1.98;;
40150;SDS011;25866;52.420;10.640;2023-05-29T10:53:02;6.07;;;1.92;;
40150;SDS011;25866;52.420;10.640;2023-05-29T10:55:34;6.82;;;2.30;;
40150;SDS011;25866;52.420;10.640;2023-05-29T10:58:09;4.80;;;2.30;;
40150;SDS011;25866;52.420;10.640;2023-05-29T11:00:42;5.97;;;2.30;;
40150;SDS011;25866;52.420;10.640;2023-05-29T11:03:19;7.53;;;2.20;;
40150;SDS011;25866;52.420;10.640;2023-05-29T11:08:47;6.90;;;2.22;;
40150;SDS011;25866;52.420;10.640;2023-05-29T11:11:42;8.10;;;1.92;;
40150;SDS011;25866;52.420;10.640;2023-05-29T11:14:27;5.60;;;2.40;;
40150;SDS011;25866;52.420;10.640;2023-05-29T11:17:29;4.85;;;2.45;;
40150;SDS011;25866;52.420;10.640;2023-05-29T11:20:43;6.03;;;2.30;;
40150;SDS011;25866;52.420;10.640;2023-05-29T11:23:54;8.15;;;2.53;;
40150;SDS011;25866;52.420;10.640;2023-05-29T11:32:57;8.07;;;2.22;;
40150;SDS011;25866;52.420;10.640;2023-05-29T11:35:27;6.40;;;2.30;;
40150;SDS011;25866;52.420;10.640;2023-05-29T11:38:00;5.85;;;2.00;;
40150;SDS011;25866;52.420;10.640;2023-05-29T11:40:29;7.07;;;2.40;;
40150;SDS011;25866;52.420;10.640;2023-05-29T11:43:11;6.32;;;2.45;;
40150;SDS011;25866;52.420;10.640;2023-05-29T11:48:09;6.43;;;2.70;;
40150;SDS011;25866;52.420;10.640;2023-05-29T11:50:42;4.88;;;1.90;;
40150;SDS011;25866;52.420;10.640;2023-05-29T11:53:12;6.18;;;2.17;;
40150;SDS011;25866;52.420;10.640;2023-05-29T11:55:45;6.28;;;2.15;;
40150;SDS011;25866;52.420;10.640;2023-05-29T11:58:15;5.15;;;2.03;;
40150;SDS011;25866;52.420;10.640;2023-05-29T12:00:42;5.28;;;2.03;;
40150;SDS011;25866;52.420;10.640;2023-05-29T12:03:12;7.05;;;2.35;;
40150;SDS011;25866;52.420;10.640;2023-05-29T12:08:23;6.90;;;2.50;;
40150;SDS011;25866;52.420;10.640;2023-05-29T12:10:52;8.35;;;2.42;;
40150;SDS011;25866;52.420;10.640;2023-05-29T12:13:18;5.85;;;2.15;;
40150;SDS011;25866;52.420;10.640;2023-05-29T12:15:45;4.55;;;1.92;;
40150;SDS011;25866;52.420;10.640;2023-05-29T12:18:13;7.35;;;2.33;;
40150;SDS011;25866;52.420;10.640;2023-05-29T12:20:43;5.88;;;2.00;;
40150;SDS011;25866;52.420;10.640;2023-05-29T12:23:08;7.00;;;2.35;;
40150;SDS011;25866;52.420;10.640;2023-05-29T12:25:34;5.80;;;2.35;;
40150;SDS011;25866;52.420;10.640;2023-05-29T12:28:02;5.25;;;1.95;;
40150;SDS011;25866;52.420;10.640;2023-05-29T12:30:30;7.43;;;2.47;;
40150;SDS011;25866;52.420;10.640;2023-05-29T12:33:01;6.85;;;1.98;;
40150;SDS011;25866;52.420;10.640;2023-05-29T12:35:28;8.00;;;2.35;;
40150;SDS011;25866;52.420;10.640;2023-05-29T12:37:57;6.82;;;2.22;;
40150;SDS011;25866;52.420;10.640;2023-05-29T12:40:24;2.80;;;1.50;;
40150;SDS011;25866;52.420;10.640;2023-05-29T12:42:55;5.43;;;1.98;;
40150;SDS011;25866;52.420;10.640;2023-05-29T12:45:31;5.93;;;2.30;;
40150;SDS011;25866;52.420;10.640;2023-05-29T12:48:01;3.85;;;2.13;;
40150;SDS011;25866;52.420;10.640;2023-05-29T12:50:29;5.78;;;2.00;;
40150;SDS011;25866;52.420;10.640;2023-05-29T12:53:09;4.93;;;2.15;;
40150;SDS011;25866;52.420;10.640;2023-05-29T12:55:39;7.55;;;2.45;;
40150;SDS011;25866;52.420;10.640;2023-05-29T13:00:46;3.25;;;1.83;;
40150;SDS011;25866;52.420;10.640;2023-05-29T13:03:19;5.82;;;1.92;;
40150;SDS011;25866;52.420;10.640;2023-05-29T13:05:45;7.65;;;2.17;;
40150;SDS011;25866;52.420;10.640;2023-05-29T13:08:12;4.35;;;1.88;;
40150;SDS011;25866;52.420;10.640;2023-05-29T13:10:38;6.97;;;2.30;;
40150;SDS011;25866;52.420;10.640;2023-05-29T13:13:03;6.75;;;2.00;;
40150;SDS011;25866;52.420;10.640;2023-05-29T13:15:32;6.30;;;2.15;;
40150;SDS011;25866;52.420;10.640;2023-05-29T13:17:58;6.20;;;2.38;;
40150;SDS011;25866;52.420;10.640;2023-05-29T13:20:24;5.07;;;2.20;;
40150;SDS011;25866;52.420;10.640;2023-05-29T13:22:50;6.20;;;2.30;;
40150;SDS011;25866;52.420;10.640;2023-05-29T13:25:18;6.30;;;2.40;;
40150;SDS011;25866;52.420;10.640;2023-05-29T13:27:48;8.27;;;2.60;;
40150;SDS011;25866;52.420;10.640;2023-05-29T13:30:14;7.50;;;2.22;;
40150;SDS011;25866;52.420;10.640;2023-05-29T13:32:41;4.68;;;1.80;;
40150;SDS011;25866;52.420;10.640;2023-05-29T13:35:07;6.70;;;2.30;;
40150;SDS011;25866;52.420;10.640;2023-05-29T13:37:40;6.05;;;2.50;;
40150;SDS011;25866;52.420;10.640;2023-05-29T13:40:08;7.60;;;2.10;;
40150;SDS011;25866;52.420;10.640;2023-05-29T13:42:34;5.32;;;2.45;;
40150;SDS011;25866;52.420;10.640;2023-05-29T13:45:00;5.07;;;2.20;;
40150;SDS011;25866;52.420;10.640;2023-05-29T13:47:28;6.60;;;2.40;;
40150;SDS011;25866;52.420;10.640;2023-05-29T13:49:56;3.88;;;1.90;;
40150;SDS011;25866;52.420;10.640;2023-05-29T13:52:21;6.38;;;2.10;;
40150;SDS011;25866;52.420;10.640;2023-05-29T13:54:47;10.07;;;2.75;;
40150;SDS011;25866;52.420;10.640;2023-05-29T13:57:13;5.65;;;2.22;;
40150;SDS011;25866;52.420;10.640;2023-05-29T13:59:39;7.60;;;2.47;;
40150;SDS011;25866;52.420;10.640;2023-05-29T14:02:05;6.72;;;2.40;;
40150;SDS011;25866;52.420;10.640;2023-05-29T14:04:32;5.32;;;2.20;;
40150;SDS011;25866;52.420;10.640;2023-05-29T14:06:58;9.05;;;1.90;;
40150;SDS011;25866;52.420;10.640;2023-05-29T14:09:24;4.88;;;2.03;;
40150;SDS011;25866;52.420;10.640;2023-05-29T14:11:57;6.18;;;2.20;;
40150;SDS011;25866;52.420;10.640;2023-05-29T14:14:24;6.25;;;2.22;;
40150;SDS011;25866;52.420;10.640;2023-05-29T14:16:51;8.05;;;2.13;;
40150;SDS011;25866;52.420;10.640;2023-05-29T14:21:48;5.38;;;1.85;;
40150;SDS011;25866;52.420;10.640;2023-05-29T14:24:14;10.05;;;2.40;;
40150;SDS011;25866;52.420;10.640;2023-05-29T14:26:42;6.00;;;2.17;;
40150;SDS011;25866;52.420;10.640;2023-05-29T14:29:15;8.25;;;2.40;;
40150;SDS011;25866;52.420;10.640;2023-05-29T14:31:41;8.93;;;2.08;;
40150;SDS011;25866;52.420;10.640;2023-05-29T14:34:07;5.55;;;1.95;;
40150;SDS011;25866;52.420;10.640;2023-05-29T14:36:33;6.55;;;2.00;;
40150;SDS011;25866;52.420;10.640;2023-05-29T14:39:09;4.25;;;1.70;;
40150;SDS011;25866;52.420;10.640;2023-05-29T14:41:36;6.70;;;2.17;;
40150;SDS011;25866;52.420;10.640;2023-05-29T14:44:02;4.38;;;2.00;;
40150;SDS011;25866;52.420;10.640;2023-05-29T14:46:28;5.55;;;1.88;;
40150;SDS011;25866;52.420;10.640;2023-05-29T14:48:58;5.60;;;1.95;;
40150;SDS011;25866;52.420;10.640;2023-05-29T14:51:27;4.18;;;1.83;;
40150;SDS011;25866;52.420;10.640;2023-05-29T14:53:53;5.55;;;1.70;;
40150;SDS011;25866;52.420;10.640;2023-05-29T14:56:19;4.35;;;1.70;;
40150;SDS011;25866;52.420;10.640;2023-05-29T14:58:47;6.40;;;2.05;;
40150;SDS011;25866;52.420;10.640;2023-05-29T15:01:13;4.75;;;2.00;;
40150;SDS011;25866;52.420;10.640;2023-05-29T15:03:40;4.38;;;1.80;;
40150;SDS011;25866;52.420;10.640;2023-05-29T15:06:06;5.82;;;1.88;;
40150;SDS011;25866;52.420;10.640;2023-05-29T15:08:34;3.97;;;1.83;;
40150;SDS011;25866;52.420;10.640;2023-05-29T15:11:00;6.80;;;2.22;;
40150;SDS011;25866;52.420;10.640;2023-05-29T15:13:28;4.45;;;1.92;;
40150;SDS011;25866;52.420;10.640;2023-05-29T15:15:54;6.57;;;2.10;;
40150;SDS011;25866;52.420;10.640;2023-05-29T15:18:20;5.28;;;2.40;;
40150;SDS011;25866;52.420;10.640;2023-05-29T15:20:46;7.70;;;2.40;;
40150;SDS011;25866;52.420;10.640;2023-05-29T15:23:12;5.15;;;2.17;;
40150;SDS011;25866;52.420;10.640;2023-05-29T15:25:38;4.78;;;1.80;;
40150;SDS011;25866;52.420;10.640;2023-05-29T15:28:04;4.47;;;1.80;;
40150;SDS011;25866;52.420;10.640;2023-05-29T15:30:30;5.30;;;2.13;;
40150;SDS011;25866;52.420;10.640;2023-05-29T15:32:56;6.13;;;2.35;;
40150;SDS011;25866;52.420;10.640;2023-05-29T15:35:24;6.15;;;1.95;;
40150;SDS011;25866;52.420;10.640;2023-05-29T15:37:52;6.63;;;2.45;;
40150;SDS011;25866;52.420;10.640;2023-05-29T15:40:18;6.90;;;2.90;;
40150;SDS011;25866;52.420;10.640;2023-05-29T15:42:43;6.00;;;1.98;;
40150;SDS011;25866;52.420;10.640;2023-05-29T15:45:10;4.75;;;1.90;;